createdAt,value
2022-09-02T00:01:02.784Z,99151.31
2022-09-02T00:03:33.841Z,99155.38
2022-09-02T00:06:02.338Z,99134.69
2022-09-02T00:08:31.858Z,99144.06
2022-09-02T00:11:02.207Z,99156.00
2022-09-02T00:13:31.459Z,99147.81
2022-09-02T00:15:59.112Z,99147.25
2022-09-02T00:18:27.229Z,99128.22
2022-09-02T00:20:57.491Z,99139.72
2022-09-02T00:23:25.606Z,99131.94
2022-09-02T00:25:55.309Z,99133.53
2022-09-02T00:28:22.986Z,99137.56
2022-09-02T00:30:51.887Z,99133.31
2022-09-02T00:33:19.962Z,99133.19
2022-09-02T00:35:48.044Z,99129.59
2022-09-02T00:38:17.081Z,99131.06
2022-09-02T00:40:46.116Z,99132.13
2022-09-02T00:43:14.061Z,99131.59
2022-09-02T00:45:41.818Z,99131.38
2022-09-02T00:48:09.509Z,99127.13
2022-09-02T00:50:37.994Z,99124.44
2022-09-02T00:53:08.343Z,99125.31
2022-09-02T00:55:41.078Z,99107.09
2022-09-02T00:58:14.219Z,99115.09
2022-09-02T01:00:44.603Z,99117.31
2022-09-02T01:03:14.340Z,99095.06
2022-09-02T01:05:45.438Z,99104.88
2022-09-02T01:08:13.833Z,99124.09
2022-09-02T01:10:43.228Z,99104.50
2022-09-02T01:13:13.334Z,99073.44
2022-09-02T01:15:44.558Z,99087.56
2022-09-02T01:18:15.715Z,99119.28
2022-09-02T01:20:43.535Z,99118.88
2022-09-02T01:23:12.790Z,99105.34
2022-09-02T01:25:40.539Z,99110.84
2022-09-02T01:28:10.526Z,99120.34
2022-09-02T01:30:39.687Z,99110.53
2022-09-02T01:33:07.316Z,99117.78
2022-09-02T01:35:35.227Z,99111.06
2022-09-02T01:38:03.413Z,99124.50
2022-09-02T01:40:33.361Z,99108.09
2022-09-02T01:43:03.335Z,99101.47
2022-09-02T01:45:30.945Z,99106.69
2022-09-02T01:47:58.577Z,99102.78
2022-09-02T01:50:26.463Z,99108.69
2022-09-02T01:52:54.308Z,99105.19
2022-09-02T01:55:22.773Z,99103.41
2022-09-02T01:57:51.772Z,99100.84
2022-09-02T02:00:19.893Z,99101.50
2022-09-02T02:02:47.586Z,99102.88
2022-09-02T02:05:15.874Z,99102.16
2022-09-02T02:07:43.874Z,99104.31
2022-09-02T02:10:13.491Z,99109.44
2022-09-02T02:12:41.716Z,99089.63
2022-09-02T02:15:14.911Z,99105.06
2022-09-02T02:17:42.941Z,99106.13
2022-09-02T02:20:13.195Z,99108.69
2022-09-02T02:22:40.912Z,99096.94
2022-09-02T02:25:09.294Z,99098.94
2022-09-02T02:27:37.054Z,99101.59
2022-09-02T02:30:06.630Z,99094.69
2022-09-02T02:32:35.953Z,99085.25
2022-09-02T02:35:04.433Z,99091.97
2022-09-02T02:37:32.265Z,99105.00
2022-09-02T02:39:59.931Z,99089.50
2022-09-02T02:42:27.813Z,99099.53
2022-09-02T02:44:55.526Z,99100.94
2022-09-02T02:47:23.262Z,99099.75
2022-09-02T02:49:52.266Z,99096.78
2022-09-02T02:52:20.573Z,99096.44
2022-09-02T02:54:48.327Z,99092.25
2022-09-02T02:57:16.050Z,99103.94
2022-09-02T02:59:43.754Z,99097.47
2022-09-02T03:02:11.734Z,99099.56
2022-09-02T03:04:41.164Z,99098.63
2022-09-02T03:07:10.300Z,99097.88
2022-09-02T03:09:38.067Z,99095.69
2022-09-02T03:12:06.444Z,99099.28
2022-09-02T03:14:34.184Z,99084.03
2022-09-02T03:17:01.989Z,99087.38
2022-09-02T03:19:29.704Z,99091.44
2022-09-02T03:21:57.340Z,99087.75
2022-09-02T03:24:26.430Z,99095.34
2022-09-02T03:26:54.438Z,99093.63
2022-09-02T03:29:22.146Z,99091.44
2022-09-02T03:31:49.800Z,99090.88
2022-09-02T03:34:17.526Z,99089.47
2022-09-02T03:36:45.206Z,99090.50
2022-09-02T03:39:15.082Z,99093.94
2022-09-02T03:41:44.426Z,99081.50
2022-09-02T03:44:12.415Z,99088.81
2022-09-02T03:46:40.070Z,99087.56
2022-09-02T03:49:09.326Z,99092.28
2022-09-02T03:51:41.211Z,99085.41
2022-09-02T03:54:10.466Z,99097.06
2022-09-02T03:56:38.926Z,99082.44
2022-09-02T03:59:09.212Z,99082.44
2022-09-02T04:01:37.156Z,99085.66
2022-09-02T04:04:05.192Z,99089.25
2022-09-02T04:06:33.349Z,99086.97
2022-09-02T04:09:01.178Z,99084.22
2022-09-02T04:11:28.856Z,99091.91
2022-09-02T04:13:56.580Z,99083.66
2022-09-02T04:17:19.340Z,99082.63
2022-09-02T04:20:42.295Z,99085.94
2022-09-02T04:23:11.656Z,99086.69
2022-09-02T04:25:41.051Z,99080.63
2022-09-02T04:28:08.844Z,99086.50
2022-09-02T04:30:39.442Z,99076.53
2022-09-02T04:33:07.169Z,99086.00
2022-09-02T04:35:35.842Z,99076.06
2022-09-02T04:38:03.949Z,99088.38
2022-09-02T04:40:33.087Z,99088.75
2022-09-02T04:43:00.946Z,99087.31
2022-09-02T04:45:29.951Z,99089.25
2022-09-02T04:47:57.908Z,99080.03
2022-09-02T04:50:25.700Z,99085.53
2022-09-02T04:52:53.368Z,99086.00
2022-09-02T04:55:21.260Z,99091.41
2022-09-02T04:57:50.231Z,99094.72
2022-09-02T05:00:18.861Z,99097.09
2022-09-02T05:02:47.021Z,99090.53
2022-09-02T05:05:15.028Z,99092.56
2022-09-02T05:07:42.638Z,99095.78
2022-09-02T05:10:12.771Z,99098.91
2022-09-02T05:12:41.880Z,99099.84
2022-09-02T05:15:12.251Z,99095.00
2022-09-02T05:17:40.351Z,99096.53
2022-09-02T05:20:09.460Z,99095.69
2022-09-02T05:22:38.132Z,99089.53
2022-09-02T05:25:08.683Z,99090.66
2022-09-02T05:27:37.058Z,99093.78
2022-09-02T05:30:05.552Z,99093.13
2022-09-02T05:32:37.738Z,99095.59
2022-09-02T05:35:06.578Z,99097.13
2022-09-02T05:37:36.086Z,99097.78
2022-09-02T05:40:04.734Z,99100.19
2022-09-02T05:42:33.531Z,99095.88
2022-09-02T05:45:01.384Z,99103.78
2022-09-02T05:47:30.224Z,99106.06
2022-09-02T05:50:01.549Z,99093.25
2022-09-02T05:52:31.174Z,99099.31
2022-09-02T05:54:59.138Z,99104.25
2022-09-02T05:57:27.976Z,99097.50
2022-09-02T05:59:56.891Z,99093.16
2022-09-02T06:02:25.850Z,99101.09
2022-09-02T06:04:55.418Z,99097.75
2022-09-02T06:07:26.293Z,99097.94
2022-09-02T06:09:55.264Z,99089.56
2022-09-02T06:12:23.594Z,99100.50
2022-09-02T06:14:51.278Z,99094.38
2022-09-02T06:17:27.273Z,99098.06
2022-09-02T06:19:57.806Z,99101.81
2022-09-02T06:22:26.933Z,99102.88
2022-09-02T06:24:54.698Z,99098.09
2022-09-02T06:27:22.626Z,99101.50
2022-09-02T06:29:50.867Z,99092.19
2022-09-02T06:32:18.587Z,99092.94
2022-09-02T06:34:46.305Z,99098.09
2022-09-02T06:37:14.077Z,99099.72
2022-09-02T06:39:44.789Z,99091.53
2022-09-02T06:42:12.528Z,99098.81
2022-09-02T06:44:40.184Z,99094.44
2022-09-02T06:47:07.948Z,99091.78
2022-09-02T06:49:35.583Z,99095.00
2022-09-02T06:52:05.425Z,99093.28
2022-09-02T06:54:33.147Z,99086.47
2022-09-02T06:57:02.283Z,99093.38
2022-09-02T06:59:30.326Z,99093.06
2022-09-02T07:01:58.329Z,99093.06
2022-09-02T07:04:43.823Z,99080.94
2022-09-02T07:07:12.053Z,99084.41
2022-09-02T07:09:40.693Z,99081.06
2022-09-02T07:12:09.991Z,99076.47
2022-09-02T07:14:38.510Z,99090.81
2022-09-02T07:17:06.313Z,99084.31
2022-09-02T07:19:34.184Z,99083.44
2022-09-02T07:22:01.887Z,99086.88
2022-09-02T07:24:29.603Z,99085.28
2022-09-02T07:26:57.278Z,99082.16
2022-09-02T07:29:26.874Z,99086.34
2022-09-02T07:31:54.536Z,99077.81
2022-09-02T07:34:22.666Z,99079.81
2022-09-02T07:36:50.407Z,99081.44
2022-09-02T07:39:19.480Z,99075.75
2022-09-02T07:41:50.042Z,99076.53
2022-09-02T07:44:19.190Z,99075.75
2022-09-02T07:46:48.515Z,99081.59
2022-09-02T07:49:19.802Z,99076.69
2022-09-02T07:51:50.507Z,99074.06
2022-09-02T07:54:20.307Z,99073.47
2022-09-02T07:56:49.705Z,99074.22
2022-09-02T07:59:17.997Z,99072.97
2022-09-02T08:01:45.686Z,99076.75
2022-09-02T08:04:14.721Z,99069.00
2022-09-02T08:06:43.105Z,99071.56
2022-09-02T08:09:12.130Z,99076.88
2022-09-02T08:11:40.306Z,99074.97
2022-09-02T08:14:08.595Z,99067.06
2022-09-02T08:16:36.503Z,99070.72
2022-09-02T08:19:04.811Z,99073.44
2022-09-02T08:21:33.821Z,99069.22
2022-09-02T08:24:01.627Z,99073.91
2022-09-02T08:26:31.226Z,99065.41
2022-09-02T08:28:58.873Z,99066.44
2022-09-02T08:31:26.651Z,99069.78
2022-09-02T08:33:54.458Z,99067.63
2022-09-02T08:36:22.197Z,99074.63
2022-09-02T08:38:51.343Z,99072.72
2022-09-02T08:41:22.981Z,99079.78
2022-09-02T08:43:51.581Z,99072.41
2022-09-02T08:46:19.944Z,99070.97
2022-09-02T08:48:50.714Z,99070.38
2022-09-02T08:51:21.707Z,99070.56
2022-09-02T08:53:54.999Z,99072.31
2022-09-02T08:56:22.682Z,99073.19
2022-09-02T08:58:56.193Z,99069.09
2022-09-02T09:01:33.575Z,99064.69
2022-09-02T09:04:13.713Z,99055.97
2022-09-02T09:06:51.754Z,99061.47
2022-09-02T09:09:26.983Z,99056.84
2022-09-02T09:12:00.769Z,99064.19
2022-09-02T09:14:31.443Z,99056.84
2022-09-02T09:17:00.659Z,99056.66
2022-09-02T09:19:37.266Z,99059.53
2022-09-02T09:22:05.287Z,99054.88
2022-09-02T09:24:37.653Z,99052.19
2022-09-02T09:27:08.552Z,99047.28
2022-09-02T09:29:37.059Z,99043.50
2022-09-02T09:32:05.444Z,99025.97
2022-09-02T09:34:57.463Z,99040.25
2022-09-02T09:37:37.087Z,99035.03
2022-09-02T09:40:26.294Z,99030.66
2022-09-02T09:42:56.954Z,99038.41
2022-09-02T09:45:32.336Z,99024.28
2022-09-02T09:48:27.630Z,99035.44
2022-09-02T09:51:19.155Z,99029.22
2022-09-02T09:53:47.167Z,99023.56
2022-09-02T09:56:32.261Z,99015.69
2022-09-02T09:59:08.646Z,99016.47
2022-09-02T10:01:36.828Z,99012.28
2022-09-02T10:06:54.215Z,99009.41
2022-09-02T10:09:32.376Z,99012.59
2022-09-02T10:12:03.936Z,99009.22
2022-09-02T10:14:35.880Z,99002.03
2022-09-02T10:17:17.380Z,99003.63
2022-09-02T10:19:50.091Z,99000.16
2022-09-02T10:22:59.549Z,98997.19
2022-09-02T10:25:32.349Z,98996.41
2022-09-02T10:28:07.183Z,98996.59
2022-09-02T10:30:39.447Z,98982.22
2022-09-02T10:33:20.854Z,98981.38
2022-09-02T10:35:50.930Z,98982.44
2022-09-02T10:38:37.053Z,98979.22
2022-09-02T10:41:13.820Z,98970.03
2022-09-02T10:43:58.807Z,98974.50
2022-09-02T10:46:27.129Z,98970.53
2022-09-02T10:49:00.075Z,98966.06
2022-09-02T10:51:37.125Z,98963.16
2022-09-02T10:54:23.415Z,98949.31
2022-09-02T10:56:54.696Z,98952.84
2022-09-02T10:59:27.667Z,98951.81
2022-09-02T11:01:57.493Z,98949.28
2022-09-02T11:04:32.551Z,98948.16
2022-09-02T11:07:03.264Z,98943.09
2022-09-02T11:09:34.999Z,98940.97
2022-09-02T11:12:08.558Z,98937.38
2022-09-02T11:14:43.707Z,98935.53
2022-09-02T11:17:19.152Z,98932.75
2022-09-02T11:19:51.072Z,98916.94
2022-09-02T11:22:27.643Z,98917.03
2022-09-02T11:25:00.624Z,98916.16
2022-09-02T11:27:42.227Z,98913.06
2022-09-02T11:30:14.077Z,98910.97
2022-09-02T11:32:45.520Z,98901.22
2022-09-02T11:35:16.149Z,98910.59
2022-09-02T11:37:47.191Z,98911.78
2022-09-02T11:40:36.097Z,98908.75
2022-09-02T11:43:28.595Z,98900.13
2022-09-02T11:46:27.440Z,98904.69
2022-09-02T11:49:20.483Z,98895.19
2022-09-02T11:52:10.429Z,98897.91
2022-09-02T11:54:41.319Z,98895.75
2022-09-02T11:57:13.469Z,98891.19
2022-09-02T12:00:08.064Z,98892.03
2022-09-02T12:02:40.624Z,98894.78
2022-09-02T12:05:44.947Z,98891.72
2022-09-02T12:08:15.004Z,98886.34
2022-09-02T12:11:00.091Z,98881.19
2022-09-02T12:13:41.076Z,98886.78
2022-09-02T12:16:38.782Z,98882.31
2022-09-02T12:19:28.968Z,98890.34
2022-09-02T12:22:42.559Z,98888.13
2022-09-02T12:25:38.170Z,98887.44
2022-09-02T12:28:25.316Z,98887.94
2022-09-02T12:31:21.796Z,98876.19
2022-09-02T12:33:51.526Z,98874.38
2022-09-02T12:36:49.124Z,98873.00
2022-09-02T12:39:54.307Z,98865.28
2022-09-02T12:42:26.982Z,98851.28
2022-09-02T12:45:04.697Z,98870.00
2022-09-02T12:47:42.131Z,98856.84
2022-09-02T12:50:17.800Z,98867.78
2022-09-02T12:52:50.055Z,98867.09
2022-09-02T12:55:22.394Z,98856.63
2022-09-02T12:57:52.449Z,98849.72
2022-09-02T13:00:28.737Z,98847.16
2022-09-02T13:03:04.272Z,98840.28
2022-09-02T13:05:39.956Z,98837.91
2022-09-02T13:08:41.166Z,98835.75
2022-09-02T13:11:32.325Z,98843.34
2022-09-02T13:14:30.232Z,98831.53
2022-09-02T13:17:35.604Z,98833.72
2022-09-02T13:20:41.859Z,98825.25
2022-09-02T13:23:31.375Z,98816.50
2022-09-02T13:26:22.896Z,98814.66
2022-09-02T13:29:37.363Z,98810.94
2022-09-02T13:32:14.100Z,98806.25
2022-09-02T13:34:42.949Z,98805.66
2022-09-02T13:37:29.104Z,98799.59
2022-09-02T13:39:57.138Z,98802.34
2022-09-02T13:42:27.968Z,98793.84
2022-09-02T13:45:14.929Z,98800.66
2022-09-02T13:47:44.525Z,98795.44
2022-09-02T13:50:13.923Z,98790.88
2022-09-02T13:55:31.186Z,98775.16
2022-09-02T13:58:03.723Z,98777.53
2022-09-02T14:00:34.959Z,98778.06
2022-09-02T14:03:06.347Z,98772.63
2022-09-02T14:05:36.592Z,98785.81
2022-09-02T14:08:07.208Z,98775.00
2022-09-02T14:10:37.225Z,98768.69
2022-09-02T14:13:08.553Z,98774.56
2022-09-02T14:15:36.652Z,98759.75
2022-09-02T14:18:18.006Z,98757.56
2022-09-02T14:20:58.788Z,98750.28
2022-09-02T14:23:28.017Z,98742.09
2022-09-02T14:25:57.359Z,98737.66
2022-09-02T14:28:28.464Z,98735.13
2022-09-02T14:30:58.950Z,98728.41
2022-09-02T14:33:29.297Z,98725.75
2022-09-02T14:36:01.234Z,98723.19
2022-09-02T14:38:31.187Z,98722.50
2022-09-02T14:41:04.331Z,98714.47
2022-09-02T14:43:43.303Z,98709.91
2022-09-02T14:46:27.062Z,98713.13
2022-09-02T14:48:59.356Z,98720.22
2022-09-02T14:51:30.865Z,98715.50
2022-09-02T14:53:58.752Z,98714.84
2022-09-02T14:56:49.330Z,98707.25
2022-09-02T14:59:18.798Z,98712.13
2022-09-02T15:01:49.061Z,98712.31
2022-09-02T15:04:17.088Z,98709.09
2022-09-02T15:06:44.801Z,98710.47
2022-09-02T15:09:12.959Z,98702.53
2022-09-02T15:11:41.044Z,98693.91
2022-09-02T15:14:08.636Z,98701.53
2022-09-02T15:16:37.595Z,98702.72
2022-09-02T15:19:05.366Z,98693.94
2022-09-02T15:21:33.084Z,98691.25
2022-09-02T15:24:00.804Z,98677.44
2022-09-02T15:26:28.456Z,98690.91
2022-09-02T15:28:56.149Z,98685.19
2022-09-02T15:31:23.913Z,98691.59
2022-09-02T15:33:53.288Z,98686.88
2022-09-02T15:36:21.612Z,98690.06
2022-09-02T15:38:49.337Z,98696.63
2022-09-02T15:41:19.113Z,98695.78
2022-09-02T15:43:47.603Z,98684.50
2022-09-02T15:46:21.939Z,98691.72
2022-09-02T15:48:50.044Z,98684.66
2022-09-02T15:51:21.282Z,98695.28
2022-09-02T15:53:50.076Z,98686.19
2022-09-02T15:56:19.687Z,98672.72
2022-09-02T15:58:47.701Z,98672.03
2022-09-02T16:01:15.499Z,98664.63
2022-09-02T16:03:44.213Z,98672.53
2022-09-02T16:06:13.267Z,98667.84
2022-09-02T16:08:42.469Z,98669.19
2022-09-02T16:11:10.160Z,98675.06
2022-09-02T16:13:38.201Z,98669.34
2022-09-02T16:16:07.410Z,98667.16
2022-09-02T16:18:36.118Z,98673.06
2022-09-02T16:21:04.329Z,98675.41
2022-09-02T16:23:32.290Z,98668.66
2022-09-02T16:26:15.849Z,98670.19
2022-09-02T16:28:44.740Z,98669.34
2022-09-02T16:31:13.737Z,98667.63
2022-09-02T16:33:42.504Z,98666.25
2022-09-02T16:36:10.178Z,98666.59
2022-09-02T16:38:38.056Z,98663.38
2022-09-02T16:41:05.877Z,98660.69
2022-09-02T16:43:36.564Z,98662.88
2022-09-02T16:46:05.175Z,98666.06
2022-09-02T16:48:36.813Z,98668.88
2022-09-02T16:51:05.370Z,98664.91
2022-09-02T16:53:33.451Z,98662.38
2022-09-02T16:56:01.710Z,98667.44
2022-09-02T16:58:30.556Z,98666.56
2022-09-02T17:00:59.717Z,98662.53
2022-09-02T17:03:27.462Z,98663.00
2022-09-02T17:05:55.084Z,98659.41
2022-09-02T17:08:22.768Z,98657.56
2022-09-02T17:10:50.476Z,98662.06
2022-09-02T17:13:18.345Z,98658.47
2022-09-02T17:15:46.142Z,98656.78
2022-09-02T17:18:15.150Z,98661.16
2022-09-02T17:20:42.761Z,98660.00
2022-09-02T17:23:11.989Z,98662.13
2022-09-02T17:25:39.670Z,98658.25
2022-09-02T17:30:36.153Z,98662.97
2022-09-02T17:33:03.788Z,98655.16
2022-09-02T17:35:32.843Z,98655.69
2022-09-02T17:38:00.891Z,98646.78
2022-09-02T17:40:54.669Z,98652.56
2022-09-02T17:43:22.339Z,98656.31
2022-09-02T17:45:50.143Z,98651.13
2022-09-02T17:48:37.033Z,98649.25
2022-09-02T17:51:08.703Z,98654.19
2022-09-02T17:53:39.840Z,98649.47
2022-09-02T17:56:21.855Z,98646.25
2022-09-02T17:58:56.363Z,98645.31
2022-09-02T18:01:25.502Z,98641.38
2022-09-02T18:04:03.776Z,98650.03
2022-09-02T18:06:36.325Z,98645.91
2022-09-02T18:09:07.189Z,98639.66
2022-09-02T18:11:38.837Z,98643.94
2022-09-02T18:14:16.165Z,98641.78
2022-09-02T18:16:52.435Z,98654.22
2022-09-02T18:19:30.925Z,98656.97
2022-09-02T18:22:06.505Z,98656.56
2022-09-02T18:24:43.115Z,98651.09
2022-09-02T18:27:14.303Z,98658.72
2022-09-02T18:29:57.520Z,98660.16
2022-09-02T18:32:38.069Z,98651.84
2022-09-02T18:35:17.278Z,98653.16
2022-09-02T18:37:54.760Z,98657.25
2022-09-02T18:40:29.213Z,98657.84
2022-09-02T18:43:08.304Z,98658.13
2022-09-02T18:45:40.030Z,98667.88
2022-09-02T18:48:10.318Z,98662.22
2022-09-02T18:50:57.114Z,98662.09
2022-09-02T18:53:29.961Z,98658.53
2022-09-02T18:55:59.120Z,98668.00
2022-09-02T18:58:38.066Z,98662.63
2022-09-02T19:01:09.927Z,98666.44
2022-09-02T19:03:38.620Z,98656.59
2022-09-02T19:06:08.287Z,98665.75
2022-09-02T19:08:38.180Z,98668.84
2022-09-02T19:11:08.643Z,98670.94
2022-09-02T19:13:46.275Z,98661.09
2022-09-02T19:16:16.065Z,98670.38
2022-09-02T19:18:43.808Z,98669.25
2022-09-02T19:21:12.500Z,98671.22
2022-09-02T19:23:41.522Z,98674.28
2022-09-02T19:26:09.373Z,98676.34
2022-09-02T19:28:37.091Z,98679.00
2022-09-02T19:31:05.187Z,98677.72
2022-09-02T19:33:35.448Z,98675.84
2022-09-02T19:36:03.418Z,98673.63
2022-09-02T19:38:31.062Z,98674.47
2022-09-02T19:41:01.846Z,98684.75
2022-09-02T19:43:29.680Z,98679.50
2022-09-02T19:45:57.523Z,98679.34
2022-09-02T19:48:25.284Z,98686.19
2022-09-02T19:50:53.151Z,98682.22
2022-09-02T19:53:23.567Z,98681.13
2022-09-02T19:55:51.499Z,98681.97
2022-09-02T19:58:20.578Z,98682.31
2022-09-02T20:00:48.360Z,98683.03
2022-09-02T20:03:16.289Z,98682.59
2022-09-02T20:05:43.864Z,98680.91
2022-09-02T20:08:11.507Z,98677.72
2022-09-02T20:10:39.988Z,98680.59
2022-09-02T20:13:09.285Z,98683.28
2022-09-02T20:15:39.368Z,98692.16
2022-09-02T20:18:11.216Z,98686.19
2022-09-02T20:20:39.241Z,98692.44
2022-09-02T20:23:07.831Z,98686.38
2022-09-02T20:25:45.105Z,98692.22
2022-09-02T20:28:18.234Z,98691.50
2022-09-02T20:30:49.544Z,98692.28
2022-09-02T20:33:19.464Z,98694.44
2022-09-02T20:36:02.462Z,98691.31
2022-09-02T20:38:39.943Z,98691.50
2022-09-02T20:41:10.921Z,98697.81
2022-09-02T20:43:51.601Z,98694.41
2022-09-02T20:46:29.520Z,98691.50
2022-09-02T20:49:08.203Z,98694.41
2022-09-02T20:51:41.158Z,98696.63
2022-09-02T20:54:19.824Z,98695.72
2022-09-02T20:56:52.546Z,98700.75
2022-09-02T20:59:24.692Z,98691.09
2022-09-02T21:01:56.966Z,98688.81
2022-09-02T21:04:31.842Z,98690.38
2022-09-02T21:07:02.395Z,98673.97
2022-09-02T21:09:38.368Z,98680.59
2022-09-02T21:12:14.787Z,98683.78
2022-09-02T21:14:46.739Z,98678.75
2022-09-02T21:17:21.377Z,98679.09
2022-09-02T21:19:54.343Z,98677.53
2022-09-02T21:22:26.052Z,98674.22
2022-09-02T21:24:57.073Z,98672.69
2022-09-02T21:27:26.992Z,98672.72
2022-09-02T21:30:01.630Z,98677.31
2022-09-02T21:32:35.997Z,98676.00
2022-09-02T21:35:05.231Z,98674.53
2022-09-02T21:37:34.605Z,98666.53
2022-09-02T21:40:06.902Z,98677.22
2022-09-02T21:42:44.704Z,98685.97
2022-09-02T21:45:18.292Z,98677.47
2022-09-02T21:47:53.214Z,98681.81
2022-09-02T21:50:25.336Z,98682.19
2022-09-02T21:53:00.586Z,98679.78
2022-09-02T21:55:38.940Z,98677.97
2022-09-02T21:58:16.426Z,98679.53
2022-09-02T22:00:46.918Z,98670.34
2022-09-02T22:03:21.047Z,98669.25
2022-09-02T22:05:51.201Z,98672.06
2022-09-02T22:08:25.590Z,98666.13
2022-09-02T22:11:01.850Z,98661.53
2022-09-02T22:13:31.221Z,98662.00
2022-09-02T22:16:04.252Z,98667.72
2022-09-02T22:18:39.268Z,98662.00
2022-09-02T22:21:19.723Z,98668.94
2022-09-02T22:23:47.553Z,98664.34
2022-09-02T22:26:25.082Z,98656.09
2022-09-02T22:28:55.064Z,98654.28
2022-09-02T22:31:26.070Z,98651.97
2022-09-02T22:33:58.767Z,98653.06
2022-09-02T22:36:38.252Z,98659.72
2022-09-02T22:39:07.724Z,98656.56
2022-09-02T22:41:46.721Z,98652.47
2022-09-02T22:44:17.327Z,98655.97
2022-09-02T22:47:07.173Z,98662.16
2022-09-02T22:50:05.011Z,98657.06
2022-09-02T22:52:49.661Z,98659.22
2022-09-02T22:55:21.486Z,98656.69
2022-09-02T22:57:56.311Z,98655.78
2022-09-02T23:00:25.766Z,98659.66
2022-09-02T23:02:58.178Z,98658.34
2022-09-02T23:05:45.007Z,98660.50
2022-09-02T23:08:14.225Z,98658.44
2022-09-02T23:10:47.192Z,98667.16
2022-09-02T23:13:20.503Z,98664.84
2022-09-02T23:15:58.602Z,98662.06
2022-09-02T23:18:38.959Z,98659.50
2022-09-02T23:21:14.652Z,98656.72
2022-09-02T23:23:48.305Z,98667.84
2022-09-02T23:26:25.884Z,98664.09
2022-09-02T23:29:02.453Z,98662.28
2022-09-02T23:31:39.944Z,98663.63
2022-09-02T23:34:17.007Z,98660.47
2022-09-02T23:36:52.289Z,98663.63
2022-09-02T23:39:44.070Z,98661.59
2022-09-02T23:42:13.376Z,98663.72
2022-09-02T23:44:41.743Z,98656.00
2022-09-02T23:47:20.365Z,98658.25
2022-09-02T23:49:53.206Z,98658.53
2022-09-02T23:52:26.221Z,98659.47
2022-09-02T23:55:04.518Z,98655.84
2022-09-02T23:57:49.028Z,98641.78
